createdAt,value
2022-09-16T00:00:59.989Z,993.3
2022-09-16T00:03:33.113Z,993.2
2022-09-16T00:06:07.244Z,993.3
2022-09-16T00:08:40.022Z,993.3
2022-09-16T00:11:15.161Z,993.2
2022-09-16T00:13:59.541Z,993.2
2022-09-16T00:16:32.708Z,993
2022-09-16T00:19:04.963Z,993.2
2022-09-16T00:21:38.661Z,993.2
2022-09-16T00:24:11.110Z,993
2022-09-16T00:26:43.572Z,992.9
2022-09-16T00:29:15.722Z,992.8
2022-09-16T00:31:49.214Z,992.6
2022-09-16T00:34:20.942Z,992.7
2022-09-16T00:36:57.045Z,992.9
2022-09-16T00:39:29.961Z,992.9
2022-09-16T00:42:02.306Z,992.7
2022-09-16T00:44:36.256Z,992.8
2022-09-16T00:47:10.138Z,992.8
2022-09-16T00:49:41.964Z,993
2022-09-16T00:52:14.253Z,992.9
2022-09-16T00:54:46.219Z,993
2022-09-16T00:57:21.066Z,993.1
2022-09-16T00:59:53.681Z,993.2
2022-09-16T01:02:26.281Z,993.3
2022-09-16T01:04:58.075Z,993.5
2022-09-16T01:07:34.309Z,993.4
2022-09-16T01:10:05.707Z,993.5
2022-09-16T01:12:37.691Z,993.5
2022-09-16T01:15:13.265Z,993.5
2022-09-16T01:17:46.390Z,993.5
2022-09-16T01:20:21.801Z,993.5
2022-09-16T01:22:52.906Z,993.5
2022-09-16T01:25:25.627Z,993.5
2022-09-16T01:27:57.898Z,993.5
2022-09-16T01:30:30.199Z,993.4
2022-09-16T01:33:02.972Z,993.3
2022-09-16T01:35:35.145Z,993.4
2022-09-16T01:38:07.534Z,993.4
2022-09-16T01:40:41.109Z,993.5
2022-09-16T01:43:13.404Z,993.4
2022-09-16T01:45:45.013Z,993.5
2022-09-16T01:48:17.675Z,993.6
2022-09-16T01:50:49.780Z,993.6
2022-09-16T01:53:22.433Z,993.7
2022-09-16T01:55:55.111Z,993.6
2022-09-16T01:58:27.941Z,993.6
2022-09-16T02:01:00.116Z,993.5
2022-09-16T02:03:32.539Z,993.4
2022-09-16T02:06:05.485Z,993.4
2022-09-16T02:08:37.641Z,993.4
2022-09-16T02:11:14.132Z,993.5
2022-09-16T02:13:50.685Z,993.5
2022-09-16T02:16:22.152Z,993.5
2022-09-16T02:18:54.063Z,993.5
2022-09-16T02:21:29.206Z,993.6
2022-09-16T02:24:04.182Z,993.6
2022-09-16T02:26:36.305Z,993.5
2022-09-16T02:29:08.235Z,993.5
2022-09-16T02:31:43.507Z,993.5
2022-09-16T02:34:14.555Z,993.5
2022-09-16T02:36:49.980Z,993.6
2022-09-16T02:39:21.272Z,993.7
2022-09-16T02:41:54.011Z,993.6
2022-09-16T02:44:32.437Z,993.7
2022-09-16T02:47:04.431Z,993.7
2022-09-16T02:49:37.344Z,993.6
2022-09-16T02:52:13.053Z,993.7
2022-09-16T02:54:45.177Z,993.7
2022-09-16T02:57:18.071Z,993.7
2022-09-16T02:59:54.130Z,993.7
2022-09-16T03:02:28.679Z,993.7
2022-09-16T03:05:01.558Z,993.7
2022-09-16T03:07:36.163Z,993.6
2022-09-16T03:10:08.896Z,993.6
2022-09-16T03:12:41.267Z,993.5
2022-09-16T03:15:14.110Z,993.4
2022-09-16T03:17:49.382Z,993.4
2022-09-16T03:20:21.294Z,993.4
2022-09-16T03:22:52.410Z,993.3
2022-09-16T03:25:25.397Z,993.2
2022-09-16T03:27:58.176Z,993.2
2022-09-16T03:30:33.639Z,993.2
2022-09-16T03:33:05.319Z,993.2
2022-09-16T03:35:39.396Z,993.1
2022-09-16T03:38:11.390Z,993.1
2022-09-16T03:40:44.849Z,993.1
2022-09-16T03:43:17.549Z,993.1
2022-09-16T03:45:49.849Z,993
2022-09-16T03:48:25.357Z,993.2
2022-09-16T03:50:56.981Z,993.1
2022-09-16T03:53:29.927Z,993.1
2022-09-16T03:56:02.227Z,993.2
2022-09-16T03:58:34.772Z,993.2
2022-09-16T04:01:08.536Z,993.3
2022-09-16T04:03:41.253Z,993.2
2022-09-16T04:06:17.564Z,993.3
2022-09-16T04:08:49.699Z,993.2
2022-09-16T04:11:22.211Z,993.3
2022-09-16T04:13:59.185Z,993.3
2022-09-16T04:16:30.432Z,993.3
2022-09-16T04:19:04.445Z,993.3
2022-09-16T04:21:37.278Z,993.4
2022-09-16T04:24:14.341Z,993.4
2022-09-16T04:26:47.803Z,993.3
2022-09-16T04:29:19.499Z,993.4
2022-09-16T04:31:51.763Z,993.3
2022-09-16T04:34:25.057Z,993.2
2022-09-16T04:36:58.851Z,993.1
2022-09-16T04:39:31.605Z,993.1
2022-09-16T04:42:04.360Z,993
2022-09-16T04:44:37.162Z,993.1
2022-09-16T04:47:09.616Z,993.2
2022-09-16T04:49:42.265Z,993.2
2022-09-16T04:52:15.062Z,993.3
2022-09-16T04:54:47.691Z,993.3
2022-09-16T04:57:20.033Z,993.3
2022-09-16T04:59:52.886Z,993.3
2022-09-16T05:02:27.561Z,993.2
2022-09-16T05:05:01.488Z,993
2022-09-16T05:07:34.073Z,993
2022-09-16T05:10:09.149Z,992.9
2022-09-16T05:12:41.401Z,992.9
2022-09-16T05:15:15.395Z,992.9
2022-09-16T05:17:52.914Z,992.9
2022-09-16T05:20:29.894Z,993
2022-09-16T05:23:03.313Z,993
2022-09-16T05:25:34.371Z,992.9
2022-09-16T05:28:07.151Z,992.9
2022-09-16T05:30:41.033Z,993
2022-09-16T05:33:17.121Z,993.2
2022-09-16T05:35:48.573Z,993.3
2022-09-16T05:38:21.634Z,993.4
2022-09-16T05:40:55.031Z,993.5
2022-09-16T05:43:28.077Z,993.3
2022-09-16T05:46:01.271Z,993.1
2022-09-16T05:48:33.707Z,992.9
2022-09-16T05:51:07.902Z,993
2022-09-16T05:53:41.413Z,993.2
2022-09-16T05:56:13.704Z,993.2
2022-09-16T05:58:47.283Z,993.2
2022-09-16T06:01:22.083Z,993.2
2022-09-16T06:03:55.166Z,993.2
2022-09-16T06:06:31.099Z,993.2
2022-09-16T06:09:03.181Z,993.2
2022-09-16T06:11:35.064Z,993.1
2022-09-16T06:14:07.235Z,993.1
2022-09-16T06:16:42.107Z,993.2
2022-09-16T06:19:13.994Z,993.2
2022-09-16T06:21:46.098Z,993.1
2022-09-16T06:24:20.669Z,993.1
2022-09-16T06:26:52.921Z,993
2022-09-16T06:29:25.360Z,993.1
2022-09-16T06:31:58.176Z,993.1
2022-09-16T06:34:31.024Z,993.2
2022-09-16T06:37:03.304Z,993.1
2022-09-16T06:39:41.905Z,993.1
2022-09-16T06:42:15.866Z,993.1
2022-09-16T06:44:46.855Z,993.2
2022-09-16T06:47:19.604Z,993.2
2022-09-16T06:49:51.299Z,993.2
2022-09-16T06:52:23.294Z,993.3
2022-09-16T06:54:56.198Z,993.3
2022-09-16T06:57:28.100Z,993.3
2022-09-16T07:00:01.127Z,993.2
2022-09-16T07:02:34.234Z,993.3
2022-09-16T07:05:07.918Z,993.2
2022-09-16T07:07:38.930Z,993.2
2022-09-16T07:10:12.486Z,993.1
2022-09-16T07:12:44.602Z,993.1
2022-09-16T07:15:19.968Z,993.1
2022-09-16T07:17:51.700Z,993.1
2022-09-16T07:20:23.965Z,993.1
2022-09-16T07:22:56.785Z,993.2
2022-09-16T07:25:37.608Z,993.2
2022-09-16T07:28:11.454Z,993.3
2022-09-16T07:30:43.342Z,993.2
2022-09-16T07:33:18.990Z,993.3
2022-09-16T07:35:49.718Z,993.3
2022-09-16T07:38:21.766Z,993.3
2022-09-16T07:40:54.508Z,993.3
2022-09-16T07:43:25.954Z,993.3
2022-09-16T07:45:58.565Z,993.3
2022-09-16T07:48:36.256Z,993.4
2022-09-16T07:51:07.405Z,993.4
2022-09-16T07:53:42.714Z,993.5
2022-09-16T07:56:14.569Z,993.5
2022-09-16T07:58:46.915Z,993.5
2022-09-16T08:01:23.017Z,993.5
2022-09-16T08:03:54.663Z,993.5
2022-09-16T08:06:28.097Z,993.5
2022-09-16T08:09:53.959Z,993.4
2022-09-16T08:12:24.825Z,993.3
2022-09-16T08:14:57.132Z,993.4
2022-09-16T08:17:34.948Z,993.4
2022-09-16T08:20:05.540Z,993.4
2022-09-16T08:22:38.646Z,993.4
2022-09-16T08:25:13.756Z,993.3
2022-09-16T08:27:45.978Z,993.3
2022-09-16T08:30:17.561Z,993.3
2022-09-16T08:32:49.391Z,993.2
2022-09-16T08:35:21.744Z,993.2
2022-09-16T08:37:53.963Z,993.2
2022-09-16T08:40:27.822Z,993.2
2022-09-16T08:43:00.817Z,993.2
2022-09-16T08:45:33.433Z,993.2
2022-09-16T08:48:05.999Z,993.3
2022-09-16T08:50:38.947Z,993.3
2022-09-16T08:53:11.352Z,993.4
2022-09-16T08:55:43.732Z,993.4
2022-09-16T08:58:18.396Z,993.4
2022-09-16T09:00:50.957Z,993.4
2022-09-16T09:03:24.711Z,993.3
2022-09-16T09:05:57.799Z,993.1
2022-09-16T09:08:30.807Z,993
2022-09-16T09:11:06.050Z,993
2022-09-16T09:13:38.322Z,993.1
2022-09-16T09:16:10.905Z,993.2
2022-09-16T09:18:43.373Z,993.2
2022-09-16T09:21:16.560Z,993.1
2022-09-16T09:23:50.158Z,993
2022-09-16T09:26:23.881Z,993
2022-09-16T09:28:57.971Z,993
2022-09-16T09:31:32.941Z,993
2022-09-16T09:34:05.885Z,993
2022-09-16T09:36:38.506Z,993.1
2022-09-16T09:39:10.943Z,993.1
2022-09-16T09:41:46.070Z,993
2022-09-16T09:44:18.606Z,992.9
2022-09-16T09:46:50.739Z,993
2022-09-16T09:49:24.428Z,993.1
2022-09-16T09:51:57.862Z,993
2022-09-16T09:54:31.039Z,992.9
2022-09-16T09:57:07.326Z,992.9
2022-09-16T09:59:42.457Z,992.9
2022-09-16T10:02:17.038Z,992.8
2022-09-16T10:04:49.253Z,992.8
2022-09-16T10:07:20.410Z,992.9
2022-09-16T10:09:53.349Z,993.3
2022-09-16T10:12:25.458Z,993.3
2022-09-16T10:14:58.733Z,992.9
2022-09-16T10:17:33.661Z,992.7
2022-09-16T10:20:05.336Z,992.6
2022-09-16T10:22:40.850Z,992.4
2022-09-16T10:25:13.784Z,992.2
2022-09-16T10:27:44.324Z,992.1
2022-09-16T10:30:19.477Z,992.2
2022-09-16T10:32:57.450Z,992.2
2022-09-16T10:35:30.094Z,992.2
2022-09-16T10:38:02.381Z,992.3
2022-09-16T10:40:35.614Z,992.3
2022-09-16T10:43:07.985Z,992.2
2022-09-16T10:45:44.331Z,992.1
2022-09-16T10:48:15.532Z,992.2
2022-09-16T10:50:47.889Z,992.2
2022-09-16T10:53:20.809Z,992.3
2022-09-16T10:55:54.204Z,992.2
2022-09-16T10:58:27.515Z,992.1
2022-09-16T11:01:03.022Z,992
2022-09-16T11:03:34.625Z,991.9
2022-09-16T11:06:07.818Z,991.9
2022-09-16T11:08:40.030Z,991.8
2022-09-16T11:11:17.749Z,991.6
2022-09-16T11:13:51.313Z,991.6
2022-09-16T11:16:26.084Z,991.6
2022-09-16T11:18:57.482Z,991.5
2022-09-16T11:21:30.154Z,991.5
2022-09-16T11:24:03.004Z,991.6
2022-09-16T11:26:36.109Z,991.8
2022-09-16T11:29:08.098Z,991.9
2022-09-16T11:31:41.736Z,992
2022-09-16T11:34:17.138Z,991.9
2022-09-16T11:36:53.269Z,991.7
2022-09-16T11:39:25.601Z,991.5
2022-09-16T11:41:57.577Z,991.5
2022-09-16T11:44:29.869Z,991.5
2022-09-16T11:47:02.420Z,991.5
2022-09-16T11:49:33.903Z,991.6
2022-09-16T11:52:06.017Z,991.6
2022-09-16T11:54:38.435Z,991.6
2022-09-16T11:57:15.900Z,991.6
2022-09-16T11:59:47.147Z,991.4
2022-09-16T12:02:21.363Z,991.2
2022-09-16T12:04:54.158Z,991.2
2022-09-16T12:07:27.858Z,991.3
2022-09-16T12:10:00.498Z,991.5
2022-09-16T12:12:33.853Z,991.3
2022-09-16T12:15:06.869Z,991.1
2022-09-16T12:17:40.426Z,990.8
2022-09-16T12:20:12.620Z,990.8
2022-09-16T12:22:46.431Z,990.8
2022-09-16T12:25:18.979Z,990.9
2022-09-16T12:27:51.366Z,990.9
2022-09-16T12:30:25.158Z,991
2022-09-16T12:32:58.319Z,991
2022-09-16T12:35:32.560Z,991.1
2022-09-16T12:38:04.886Z,991
2022-09-16T12:40:38.773Z,991
2022-09-16T12:43:11.456Z,991.1
2022-09-16T12:45:43.511Z,991.2
2022-09-16T12:48:16.938Z,991.2
2022-09-16T12:50:48.844Z,991.2
2022-09-16T12:53:21.477Z,991.3
2022-09-16T12:55:54.583Z,991.2
2022-09-16T12:58:29.317Z,991.2
2022-09-16T13:01:03.398Z,991.1
2022-09-16T13:03:37.958Z,991.2
2022-09-16T13:06:10.445Z,991.2
2022-09-16T13:08:40.867Z,991.2
2022-09-16T13:12:45.729Z,991.3
2022-09-16T13:15:15.349Z,991.2
2022-09-16T13:17:48.088Z,991.3
2022-09-16T13:20:21.205Z,991
2022-09-16T13:22:54.951Z,990.8
2022-09-16T13:25:27.076Z,990.9
2022-09-16T13:28:00.802Z,991.1
2022-09-16T13:30:33.430Z,991.1
2022-09-16T13:33:06.747Z,990.9
2022-09-16T13:35:40.278Z,990.8
2022-09-16T13:38:14.344Z,990.7
2022-09-16T13:40:47.362Z,990.7
2022-09-16T13:43:20.423Z,990.7
2022-09-16T13:45:53.236Z,990.6
2022-09-16T13:48:25.541Z,990.7
2022-09-16T13:50:58.750Z,990.8
2022-09-16T13:53:31.175Z,990.8
2022-09-16T13:56:03.733Z,990.8
2022-09-16T13:58:37.389Z,990.7
2022-09-16T14:01:11.571Z,990.7
2022-09-16T14:03:49.501Z,990.8
2022-09-16T14:06:21.848Z,990.7
2022-09-16T14:08:53.342Z,990.7
2022-09-16T14:11:25.919Z,990.6
2022-09-16T14:14:48.526Z,990.5
2022-09-16T14:17:18.629Z,990.5
2022-09-16T14:19:49.758Z,990.5
2022-09-16T14:22:23.756Z,990.4
2022-09-16T14:25:30.647Z,990.5
2022-09-16T14:28:00.946Z,990.7
2022-09-16T14:30:33.239Z,990.8
2022-09-16T14:33:07.131Z,991.1
2022-09-16T14:35:39.892Z,990.9
2022-09-16T14:39:08.939Z,990.7
2022-09-16T14:41:39.053Z,990.5
2022-09-16T14:44:11.370Z,990.3
2022-09-16T14:46:43.181Z,990.4
2022-09-16T14:49:18.201Z,990.5
2022-09-16T14:51:49.420Z,990.6
2022-09-16T14:54:22.855Z,990.7
2022-09-16T14:56:54.603Z,990.5
2022-09-16T14:59:27.209Z,990.2
2022-09-16T15:02:00.073Z,990.2
2022-09-16T15:04:32.383Z,990.2
2022-09-16T15:07:15.528Z,990.2
2022-09-16T15:09:53.271Z,990.1
2022-09-16T15:12:25.751Z,989.8
2022-09-16T15:14:58.252Z,989.7
2022-09-16T15:17:33.874Z,989.6
2022-09-16T15:20:09.429Z,989.5
2022-09-16T15:22:41.158Z,989.7
2022-09-16T15:25:14.295Z,989.9
2022-09-16T15:27:46.259Z,989.9
2022-09-16T15:30:18.751Z,989.8
2022-09-16T15:32:54.257Z,989.6
2022-09-16T15:35:26.238Z,989.5
2022-09-16T15:37:58.871Z,989.6
2022-09-16T15:40:32.829Z,989.7
2022-09-16T15:43:06.070Z,989.8
2022-09-16T15:45:39.385Z,989.8
2022-09-16T15:48:11.501Z,989.9
2022-09-16T15:50:43.805Z,989.9
2022-09-16T15:53:17.883Z,989.8
2022-09-16T15:55:51.704Z,989.8
2022-09-16T15:58:23.875Z,989.7
2022-09-16T16:00:58.350Z,989.6
2022-09-16T16:03:31.345Z,989.6
2022-09-16T16:06:03.422Z,989.6
2022-09-16T16:08:39.163Z,989.5
2022-09-16T16:11:14.098Z,989.5
2022-09-16T16:13:48.721Z,989.5
2022-09-16T16:16:20.721Z,989.6
2022-09-16T16:18:53.671Z,989.6
2022-09-16T16:21:26.762Z,989.6
2022-09-16T16:24:00.285Z,989.7
2022-09-16T16:26:33.362Z,989.9
2022-09-16T16:29:05.863Z,990.2
2022-09-16T16:31:39.008Z,990.4
2022-09-16T16:34:11.823Z,990.5
2022-09-16T16:36:43.979Z,990.7
2022-09-16T16:39:16.489Z,991.1
2022-09-16T16:41:49.959Z,991.2
2022-09-16T16:44:20.530Z,990.7
2022-09-16T16:46:53.030Z,990
2022-09-16T16:49:25.810Z,990
2022-09-16T16:51:58.496Z,990.2
2022-09-16T16:54:31.342Z,990.1
2022-09-16T16:57:04.619Z,990.1
2022-09-16T16:59:36.870Z,990
2022-09-16T17:02:10.290Z,990
2022-09-16T17:04:42.653Z,989.8
2022-09-16T17:07:29.111Z,989.7
2022-09-16T17:09:59.845Z,989.7
2022-09-16T17:12:36.547Z,989.6
2022-09-16T17:15:07.687Z,989.6
2022-09-16T17:17:40.785Z,989.7
2022-09-16T17:20:13.197Z,989.6
2022-09-16T17:22:45.880Z,989.7
2022-09-16T17:25:18.768Z,989.7
2022-09-16T17:27:52.233Z,989.7
2022-09-16T17:30:25.235Z,989.7
2022-09-16T17:32:57.005Z,989.9
2022-09-16T17:35:29.488Z,989.9
2022-09-16T17:38:08.146Z,989.9
2022-09-16T17:40:40.662Z,989.8
2022-09-16T17:43:14.029Z,989.7
2022-09-16T17:45:46.727Z,989.6
2022-09-16T17:48:32.540Z,989.6
2022-09-16T17:51:05.151Z,989.5
2022-09-16T17:53:39.234Z,989.5
2022-09-16T17:56:11.537Z,989.4
2022-09-16T17:58:44.792Z,989.5
2022-09-16T18:01:19.713Z,989.6
2022-09-16T18:03:54.180Z,989.9
2022-09-16T18:06:26.849Z,990.3
2022-09-16T18:08:59.290Z,990.7
2022-09-16T18:11:31.796Z,990.7
2022-09-16T18:14:06.347Z,990.6
2022-09-16T18:16:37.313Z,990.1
2022-09-16T18:19:10.574Z,990.1
2022-09-16T18:21:43.919Z,990.3
2022-09-16T18:24:16.138Z,990.4
2022-09-16T18:26:49.593Z,990.4
2022-09-16T18:29:23.746Z,990.4
2022-09-16T18:31:55.821Z,990.4
2022-09-16T18:34:34.567Z,990.4
2022-09-16T18:37:08.346Z,990.3
2022-09-16T18:39:39.899Z,990.2
2022-09-16T18:42:12.707Z,990.1
2022-09-16T18:44:46.017Z,990.1
2022-09-16T18:47:17.759Z,990.1
2022-09-16T18:49:52.103Z,990.1
2022-09-16T18:52:27.439Z,990.4
2022-09-16T18:55:06.821Z,990.5
2022-09-16T18:57:38.528Z,990.6
2022-09-16T19:00:11.884Z,990.7
2022-09-16T19:02:44.413Z,990.8
2022-09-16T19:05:17.331Z,990.7
2022-09-16T19:07:50.069Z,990.7
2022-09-16T19:10:22.746Z,990.7
2022-09-16T19:12:59.764Z,990.6
2022-09-16T19:15:35.438Z,990.7
2022-09-16T19:18:06.930Z,990.9
2022-09-16T19:20:39.699Z,991.1
2022-09-16T19:23:12.615Z,991.3
2022-09-16T19:25:45.001Z,991.5
2022-09-16T19:28:19.795Z,991.6
2022-09-16T19:30:53.932Z,991.3
2022-09-16T19:33:28.221Z,990.7
2022-09-16T19:36:01.228Z,990.3
2022-09-16T19:38:34.451Z,990.4
2022-09-16T19:41:06.494Z,990.2
2022-09-16T19:43:38.883Z,990
2022-09-16T19:46:12.822Z,989.9
2022-09-16T19:48:47.793Z,989.9
2022-09-16T19:51:21.500Z,990
2022-09-16T19:53:53.244Z,990.1
2022-09-16T19:56:26.761Z,990.3
2022-09-16T19:59:00.629Z,990.4
2022-09-16T20:01:34.508Z,990.5
2022-09-16T20:04:06.160Z,990.5
2022-09-16T20:06:38.816Z,990.5
2022-09-16T20:09:11.443Z,990.5
2022-09-16T20:11:45.106Z,990.6
2022-09-16T20:14:19.098Z,990.5
2022-09-16T20:16:56.465Z,990.6
2022-09-16T20:19:28.894Z,990.5
2022-09-16T20:22:02.077Z,990.6
2022-09-16T20:24:39.490Z,990.8
2022-09-16T20:27:11.504Z,990.9
2022-09-16T20:29:44.960Z,991
2022-09-16T20:32:17.598Z,991.1
2022-09-16T20:34:49.861Z,991
2022-09-16T20:37:21.694Z,990.8
2022-09-16T20:39:54.508Z,990.8
2022-09-16T20:42:28.292Z,990.9
2022-09-16T20:45:03.200Z,990.9
2022-09-16T20:47:39.681Z,990.9
2022-09-16T20:50:11.668Z,990.8
2022-09-16T20:52:43.318Z,990.9
2022-09-16T20:55:17.397Z,990.9
2022-09-16T20:57:55.793Z,990.9
2022-09-16T21:00:27.089Z,990.9
2022-09-16T21:03:00.683Z,990.9
2022-09-16T21:05:34.480Z,990.9
2022-09-16T21:08:06.459Z,991
2022-09-16T21:10:39.512Z,991.1
2022-09-16T21:13:17.244Z,991.1
2022-09-16T21:15:48.285Z,991
2022-09-16T21:18:23.058Z,990.9
2022-09-16T21:20:58.283Z,990.8
2022-09-16T21:23:31.392Z,990.8
2022-09-16T21:26:07.653Z,990.9
2022-09-16T21:28:40.843Z,990.9
2022-09-16T21:31:13.865Z,990.8
2022-09-16T21:33:49.188Z,990.7
2022-09-16T21:36:20.786Z,990.5
2022-09-16T21:38:53.794Z,990.4
2022-09-16T21:41:25.654Z,990.5
2022-09-16T21:43:57.705Z,990.5
2022-09-16T21:46:31.509Z,990.5
2022-09-16T21:49:09.531Z,990.5
2022-09-16T21:51:43.231Z,990.5
2022-09-16T21:54:36.933Z,990.4
2022-09-16T21:57:13.663Z,990.5
2022-09-16T21:59:46.718Z,990.5
2022-09-16T22:02:19.092Z,990.4
2022-09-16T22:04:52.549Z,990.4
2022-09-16T22:07:24.683Z,990.5
2022-09-16T22:09:57.075Z,990.5
2022-09-16T22:12:30.339Z,990.4
2022-09-16T22:15:16.935Z,990.4
2022-09-16T22:17:52.933Z,990.2
2022-09-16T22:20:30.755Z,990.1
2022-09-16T22:23:02.446Z,990.1
2022-09-16T22:25:34.938Z,990
2022-09-16T22:28:09.923Z,990
2022-09-16T22:30:48.453Z,989.8
2022-09-16T22:33:20.058Z,989.7
2022-09-16T22:36:02.351Z,989.7
2022-09-16T22:38:33.448Z,989.7
2022-09-16T22:41:05.430Z,989.7
2022-09-16T22:43:37.575Z,989.7
2022-09-16T22:46:10.904Z,989.7
2022-09-16T22:48:42.951Z,989.7
2022-09-16T22:51:15.946Z,989.6
2022-09-16T22:53:51.641Z,989.5
2022-09-16T22:56:24.520Z,989.5
2022-09-16T22:58:57.139Z,989.4
2022-09-16T23:01:29.857Z,989.4
2022-09-16T23:04:04.100Z,989.4
2022-09-16T23:06:36.847Z,989.5
2022-09-16T23:09:07.581Z,989.4
2022-09-16T23:11:39.868Z,989.4
2022-09-16T23:14:13.279Z,989.5
2022-09-16T23:16:43.467Z,989.5
2022-09-16T23:19:15.542Z,989.5
2022-09-16T23:21:49.030Z,989.4
2022-09-16T23:24:20.451Z,989.4
2022-09-16T23:26:52.456Z,989.4
2022-09-16T23:29:24.863Z,989.3
2022-09-16T23:31:56.838Z,989.3
2022-09-16T23:34:32.687Z,989.2
2022-09-16T23:37:07.017Z,989.2
2022-09-16T23:39:40.235Z,989.3
2022-09-16T23:42:21.467Z,989.2
2022-09-16T23:44:54.504Z,989.2
2022-09-16T23:47:33.435Z,989.1
2022-09-16T23:50:04.620Z,989.1
2022-09-16T23:52:38.702Z,989.1
2022-09-16T23:55:13.612Z,988.9
2022-09-16T23:57:49.301Z,988.9
